sensor_id;sensor_type;location;lat;lon;timestamp;temperature;humidity
30648;DHT22;17683;53.360;9.736;2023-11-21T00:00:19;9.60;99.90
30648;DHT22;17683;53.360;9.736;2023-11-21T00:02:45;9.60;99.90
30648;DHT22;17683;53.360;9.736;2023-11-21T00:05:13;9.60;99.90
30648;DHT22;17683;53.360;9.736;2023-11-21T00:07:42;9.60;99.90
30648;DHT22;17683;53.360;9.736;2023-11-21T00:10:08;9.60;99.90
30648;DHT22;17683;53.360;9.736;2023-11-21T00:12:35;9.50;99.90
30648;DHT22;17683;53.360;9.736;2023-11-21T00:15:01;9.60;99.90
30648;DHT22;17683;53.360;9.736;2023-11-21T00:17:27;9.60;99.90
30648;DHT22;17683;53.360;9.736;2023-11-21T00:19:53;9.60;99.90
30648;DHT22;17683;53.360;9.736;2023-11-21T00:22:19;9.60;99.90
30648;DHT22;17683;53.360;9.736;2023-11-21T00:24:48;9.60;99.90
30648;DHT22;17683;53.360;9.736;2023-11-21T00:27:13;9.60;99.90
30648;DHT22;17683;53.360;9.736;2023-11-21T00:29:40;9.60;99.90
30648;DHT22;17683;53.360;9.736;2023-11-21T00:32:06;9.60;99.90
30648;DHT22;17683;53.360;9.736;2023-11-21T00:34:32;9.60;99.90
30648;DHT22;17683;53.360;9.736;2023-11-21T00:36:58;9.50;99.90
30648;DHT22;17683;53.360;9.736;2023-11-21T00:39:24;9.50;99.90
30648;DHT22;17683;53.360;9.736;2023-11-21T00:41:52;9.50;99.90
30648;DHT22;17683;53.360;9.736;2023-11-21T00:44:18;9.50;99.90
30648;DHT22;17683;53.360;9.736;2023-11-21T00:46:44;9.50;99.90
30648;DHT22;17683;53.360;9.736;2023-11-21T00:49:09;9.50;99.90
30648;DHT22;17683;53.360;9.736;2023-11-21T00:51:35;9.50;99.90
30648;DHT22;17683;53.360;9.736;2023-11-21T00:54:01;9.50;99.90
30648;DHT22;17683;53.360;9.736;2023-11-21T00:56:27;9.50;99.90
30648;DHT22;17683;53.360;9.736;2023-11-21T00:58:53;9.50;99.90
30648;DHT22;17683;53.360;9.736;2023-11-21T01:01:20;9.50;99.90
30648;DHT22;17683;53.360;9.736;2023-11-21T01:03:48;9.50;99.90
30648;DHT22;17683;53.360;9.736;2023-11-21T01:06:15;9.50;99.90
30648;DHT22;17683;53.360;9.736;2023-11-21T01:08:41;9.50;99.90
30648;DHT22;17683;53.360;9.736;2023-11-21T01:11:07;9.50;99.90
30648;DHT22;17683;53.360;9.736;2023-11-21T01:13:38;9.40;99.90
30648;DHT22;17683;53.360;9.736;2023-11-21T01:16:05;9.40;99.90
30648;DHT22;17683;53.360;9.736;2023-11-21T01:18:32;9.40;99.90
30648;DHT22;17683;53.360;9.736;2023-11-21T01:20:57;9.40;99.90
30648;DHT22;17683;53.360;9.736;2023-11-21T01:23:24;9.40;99.90
30648;DHT22;17683;53.360;9.736;2023-11-21T01:25:50;9.40;99.90
30648;DHT22;17683;53.360;9.736;2023-11-21T01:28:17;9.30;99.90
30648;DHT22;17683;53.360;9.736;2023-11-21T01:30:42;9.30;99.90
30648;DHT22;17683;53.360;9.736;2023-11-21T01:33:09;9.30;99.90
30648;DHT22;17683;53.360;9.736;2023-11-21T01:35:35;9.30;99.90
30648;DHT22;17683;53.360;9.736;2023-11-21T01:38:01;9.30;99.90
30648;DHT22;17683;53.360;9.736;2023-11-21T01:40:27;9.30;99.90
30648;DHT22;17683;53.360;9.736;2023-11-21T01:42:54;9.30;99.90
30648;DHT22;17683;53.360;9.736;2023-11-21T01:45:20;9.20;99.90
30648;DHT22;17683;53.360;9.736;2023-11-21T01:47:45;9.20;99.90
30648;DHT22;17683;53.360;9.736;2023-11-21T01:50:14;9.20;99.90
30648;DHT22;17683;53.360;9.736;2023-11-21T01:52:42;9.10;99.90
30648;DHT22;17683;53.360;9.736;2023-11-21T01:55:08;9.10;99.90
30648;DHT22;17683;53.360;9.736;2023-11-21T01:57:36;9.10;99.90
30648;DHT22;17683;53.360;9.736;2023-11-21T02:00:05;9.00;99.90
30648;DHT22;17683;53.360;9.736;2023-11-21T02:02:45;9.00;99.90
30648;DHT22;17683;53.360;9.736;2023-11-21T02:05:20;8.90;99.90
30648;DHT22;17683;53.360;9.736;2023-11-21T02:07:47;8.80;99.90
30648;DHT22;17683;53.360;9.736;2023-11-21T02:10:18;8.70;99.90
30648;DHT22;17683;53.360;9.736;2023-11-21T02:12:48;8.60;99.90
30648;DHT22;17683;53.360;9.736;2023-11-21T02:15:16;8.60;99.90
30648;DHT22;17683;53.360;9.736;2023-11-21T02:17:46;8.60;99.90
30648;DHT22;17683;53.360;9.736;2023-11-21T02:20:19;8.60;99.90
30648;DHT22;17683;53.360;9.736;2023-11-21T02:22:55;8.50;99.90
30648;DHT22;17683;53.360;9.736;2023-11-21T02:25:31;8.50;99.90
30648;DHT22;17683;53.360;9.736;2023-11-21T02:28:00;8.50;99.90
30648;DHT22;17683;53.360;9.736;2023-11-21T02:30:27;8.50;99.90
30648;DHT22;17683;53.360;9.736;2023-11-21T02:32:59;8.40;99.90
30648;DHT22;17683;53.360;9.736;2023-11-21T02:35:25;8.40;99.90
30648;DHT22;17683;53.360;9.736;2023-11-21T02:37:54;8.40;99.90
30648;DHT22;17683;53.360;9.736;2023-11-21T02:40:20;8.30;99.90
30648;DHT22;17683;53.360;9.736;2023-11-21T02:42:46;8.30;99.90
30648;DHT22;17683;53.360;9.736;2023-11-21T02:45:19;8.30;99.90
30648;DHT22;17683;53.360;9.736;2023-11-21T02:47:46;8.20;99.90
30648;DHT22;17683;53.360;9.736;2023-11-21T02:50:13;8.20;99.90
30648;DHT22;17683;53.360;9.736;2023-11-21T02:52:39;8.20;99.90
30648;DHT22;17683;53.360;9.736;2023-11-21T02:55:08;8.10;99.90
30648;DHT22;17683;53.360;9.736;2023-11-21T02:57:34;8.10;99.90
30648;DHT22;17683;53.360;9.736;2023-11-21T02:59:59;8.10;99.90
30648;DHT22;17683;53.360;9.736;2023-11-21T03:02:25;8.20;99.90
30648;DHT22;17683;53.360;9.736;2023-11-21T03:04:51;8.20;99.90
30648;DHT22;17683;53.360;9.736;2023-11-21T03:07:17;8.10;99.90
30648;DHT22;17683;53.360;9.736;2023-11-21T03:09:45;8.10;99.90
30648;DHT22;17683;53.360;9.736;2023-11-21T03:12:11;8.10;99.90
30648;DHT22;17683;53.360;9.736;2023-11-21T03:14:41;8.10;99.90
30648;DHT22;17683;53.360;9.736;2023-11-21T03:17:07;8.10;99.90
30648;DHT22;17683;53.360;9.736;2023-11-21T03:19:32;8.10;99.90
30648;DHT22;17683;53.360;9.736;2023-11-21T03:21:58;8.00;99.90
30648;DHT22;17683;53.360;9.736;2023-11-21T03:24:24;8.00;99.90
30648;DHT22;17683;53.360;9.736;2023-11-21T03:26:50;7.90;99.90
30648;DHT22;17683;53.360;9.736;2023-11-21T03:29:16;7.90;99.90
30648;DHT22;17683;53.360;9.736;2023-11-21T03:31:42;7.90;99.90
30648;DHT22;17683;53.360;9.736;2023-11-21T03:34:14;7.90;99.90
30648;DHT22;17683;53.360;9.736;2023-11-21T03:36:40;7.90;99.90
30648;DHT22;17683;53.360;9.736;2023-11-21T03:39:05;7.90;99.90
30648;DHT22;17683;53.360;9.736;2023-11-21T03:41:31;7.90;99.90
30648;DHT22;17683;53.360;9.736;2023-11-21T03:43:57;7.90;99.90
30648;DHT22;17683;53.360;9.736;2023-11-21T03:46:23;7.90;99.90
30648;DHT22;17683;53.360;9.736;2023-11-21T03:48:48;7.80;99.90
30648;DHT22;17683;53.360;9.736;2023-11-21T03:51:14;7.90;99.90
30648;DHT22;17683;53.360;9.736;2023-11-21T03:53:40;7.80;99.90
30648;DHT22;17683;53.360;9.736;2023-11-21T03:56:06;7.80;99.90
30648;DHT22;17683;53.360;9.736;2023-11-21T03:58:31;7.80;99.90
30648;DHT22;17683;53.360;9.736;2023-11-21T04:00:57;7.80;99.90
30648;DHT22;17683;53.360;9.736;2023-11-21T04:03:23;7.80;99.90
30648;DHT22;17683;53.360;9.736;2023-11-21T04:05:48;7.80;99.90
30648;DHT22;17683;53.360;9.736;2023-11-21T04:08:14;7.70;99.90
30648;DHT22;17683;53.360;9.736;2023-11-21T04:10:40;7.70;99.90
30648;DHT22;17683;53.360;9.736;2023-11-21T04:13:06;7.60;99.90
30648;DHT22;17683;53.360;9.736;2023-11-21T04:15:32;7.60;99.90
30648;DHT22;17683;53.360;9.736;2023-11-21T04:17:58;7.60;99.90
30648;DHT22;17683;53.360;9.736;2023-11-21T04:20:24;7.60;99.90
30648;DHT22;17683;53.360;9.736;2023-11-21T04:22:49;7.60;99.90
30648;DHT22;17683;53.360;9.736;2023-11-21T04:25:15;7.60;99.90
30648;DHT22;17683;53.360;9.736;2023-11-21T04:27:42;7.60;99.90
30648;DHT22;17683;53.360;9.736;2023-11-21T04:30:13;7.50;99.90
30648;DHT22;17683;53.360;9.736;2023-11-21T04:32:39;7.50;99.90
30648;DHT22;17683;53.360;9.736;2023-11-21T04:35:05;7.40;99.90
30648;DHT22;17683;53.360;9.736;2023-11-21T04:37:31;7.40;99.90
30648;DHT22;17683;53.360;9.736;2023-11-21T04:39:57;7.40;99.90
30648;DHT22;17683;53.360;9.736;2023-11-21T04:42:23;7.30;99.90
30648;DHT22;17683;53.360;9.736;2023-11-21T04:44:49;7.40;99.90
30648;DHT22;17683;53.360;9.736;2023-11-21T04:47:15;7.40;99.90
30648;DHT22;17683;53.360;9.736;2023-11-21T04:49:43;7.40;99.90
30648;DHT22;17683;53.360;9.736;2023-11-21T04:52:12;7.40;99.90
30648;DHT22;17683;53.360;9.736;2023-11-21T04:54:38;7.30;99.90
30648;DHT22;17683;53.360;9.736;2023-11-21T04:57:05;7.30;99.90
30648;DHT22;17683;53.360;9.736;2023-11-21T04:59:33;7.30;99.90
30648;DHT22;17683;53.360;9.736;2023-11-21T05:01:58;7.30;99.90
30648;DHT22;17683;53.360;9.736;2023-11-21T05:04:25;7.20;99.90
30648;DHT22;17683;53.360;9.736;2023-11-21T05:06:51;7.30;99.90
30648;DHT22;17683;53.360;9.736;2023-11-21T05:09:17;7.20;99.90
30648;DHT22;17683;53.360;9.736;2023-11-21T05:11:43;7.20;99.90
30648;DHT22;17683;53.360;9.736;2023-11-21T05:14:09;7.30;99.90
30648;DHT22;17683;53.360;9.736;2023-11-21T05:16:34;7.20;99.90
30648;DHT22;17683;53.360;9.736;2023-11-21T05:19:01;7.20;99.90
30648;DHT22;17683;53.360;9.736;2023-11-21T05:21:27;7.30;99.90
30648;DHT22;17683;53.360;9.736;2023-11-21T05:23:53;7.20;99.90
30648;DHT22;17683;53.360;9.736;2023-11-21T05:26:19;7.20;99.90
30648;DHT22;17683;53.360;9.736;2023-11-21T05:28:45;7.20;99.90
30648;DHT22;17683;53.360;9.736;2023-11-21T05:31:10;7.20;99.90
30648;DHT22;17683;53.360;9.736;2023-11-21T05:33:36;7.20;99.90
30648;DHT22;17683;53.360;9.736;2023-11-21T05:36:02;7.20;99.90
30648;DHT22;17683;53.360;9.736;2023-11-21T05:38:28;7.20;99.90
30648;DHT22;17683;53.360;9.736;2023-11-21T05:40:54;7.20;99.90
30648;DHT22;17683;53.360;9.736;2023-11-21T05:43:19;7.20;99.90
30648;DHT22;17683;53.360;9.736;2023-11-21T05:45:45;7.20;99.90
30648;DHT22;17683;53.360;9.736;2023-11-21T05:48:11;7.20;99.90
30648;DHT22;17683;53.360;9.736;2023-11-21T05:50:37;7.20;99.90
30648;DHT22;17683;53.360;9.736;2023-11-21T05:53:03;7.20;99.90
30648;DHT22;17683;53.360;9.736;2023-11-21T05:55:29;7.20;99.90
30648;DHT22;17683;53.360;9.736;2023-11-21T05:57:55;7.20;99.90
30648;DHT22;17683;53.360;9.736;2023-11-21T06:00:21;7.20;99.90
30648;DHT22;17683;53.360;9.736;2023-11-21T06:02:51;7.20;99.90
30648;DHT22;17683;53.360;9.736;2023-11-21T06:05:22;7.20;99.90
30648;DHT22;17683;53.360;9.736;2023-11-21T06:07:51;7.20;99.90
30648;DHT22;17683;53.360;9.736;2023-11-21T06:10:21;7.10;99.90
30648;DHT22;17683;53.360;9.736;2023-11-21T06:12:47;7.20;99.90
30648;DHT22;17683;53.360;9.736;2023-11-21T06:15:13;7.10;99.90
30648;DHT22;17683;53.360;9.736;2023-11-21T06:17:44;7.20;99.90
30648;DHT22;17683;53.360;9.736;2023-11-21T06:20:15;7.10;99.90
30648;DHT22;17683;53.360;9.736;2023-11-21T06:22:45;7.10;99.90
30648;DHT22;17683;53.360;9.736;2023-11-21T06:25:12;7.10;99.90
30648;DHT22;17683;53.360;9.736;2023-11-21T06:27:46;7.10;99.90
30648;DHT22;17683;53.360;9.736;2023-11-21T06:30:13;7.20;99.90
30648;DHT22;17683;53.360;9.736;2023-11-21T06:32:39;7.20;99.90
30648;DHT22;17683;53.360;9.736;2023-11-21T06:35:06;7.20;99.90
30648;DHT22;17683;53.360;9.736;2023-11-21T06:37:32;7.10;99.90
30648;DHT22;17683;53.360;9.736;2023-11-21T06:39:59;7.10;99.90
30648;DHT22;17683;53.360;9.736;2023-11-21T06:42:25;7.10;99.90
30648;DHT22;17683;53.360;9.736;2023-11-21T06:44:51;7.10;99.90
30648;DHT22;17683;53.360;9.736;2023-11-21T06:47:18;7.10;99.90
30648;DHT22;17683;53.360;9.736;2023-11-21T06:49:46;7.00;99.90
30648;DHT22;17683;53.360;9.736;2023-11-21T06:52:13;7.00;99.90
30648;DHT22;17683;53.360;9.736;2023-11-21T06:54:39;7.10;99.90
30648;DHT22;17683;53.360;9.736;2023-11-21T06:57:05;7.10;99.90
30648;DHT22;17683;53.360;9.736;2023-11-21T06:59:31;7.10;99.90
30648;DHT22;17683;53.360;9.736;2023-11-21T07:01:57;7.00;99.90
30648;DHT22;17683;53.360;9.736;2023-11-21T07:04:22;7.00;99.90
30648;DHT22;17683;53.360;9.736;2023-11-21T07:06:48;7.00;99.90
30648;DHT22;17683;53.360;9.736;2023-11-21T07:09:14;7.00;99.90
30648;DHT22;17683;53.360;9.736;2023-11-21T07:11:41;7.00;99.90
30648;DHT22;17683;53.360;9.736;2023-11-21T07:14:07;7.00;99.90
30648;DHT22;17683;53.360;9.736;2023-11-21T07:16:36;6.90;99.90
30648;DHT22;17683;53.360;9.736;2023-11-21T07:19:06;7.00;99.90
30648;DHT22;17683;53.360;9.736;2023-11-21T07:21:35;7.00;99.90
30648;DHT22;17683;53.360;9.736;2023-11-21T07:24:02;7.00;99.90
30648;DHT22;17683;53.360;9.736;2023-11-21T07:26:32;7.00;99.90
30648;DHT22;17683;53.360;9.736;2023-11-21T07:28:59;7.00;99.90
30648;DHT22;17683;53.360;9.736;2023-11-21T07:31:25;7.00;99.90
30648;DHT22;17683;53.360;9.736;2023-11-21T07:33:51;7.00;99.90
30648;DHT22;17683;53.360;9.736;2023-11-21T07:36:17;7.00;99.90
30648;DHT22;17683;53.360;9.736;2023-11-21T07:38:49;7.00;99.90
30648;DHT22;17683;53.360;9.736;2023-11-21T07:41:15;7.00;99.90
30648;DHT22;17683;53.360;9.736;2023-11-21T07:43:41;7.00;99.90
30648;DHT22;17683;53.360;9.736;2023-11-21T07:46:07;7.00;99.90
30648;DHT22;17683;53.360;9.736;2023-11-21T07:48:39;7.00;99.90
30648;DHT22;17683;53.360;9.736;2023-11-21T07:51:35;7.10;99.90
30648;DHT22;17683;53.360;9.736;2023-11-21T07:54:10;7.10;99.90
30648;DHT22;17683;53.360;9.736;2023-11-21T07:56:36;7.10;99.90
30648;DHT22;17683;53.360;9.736;2023-11-21T07:59:01;7.10;99.90
30648;DHT22;17683;53.360;9.736;2023-11-21T08:01:27;7.00;99.90
30648;DHT22;17683;53.360;9.736;2023-11-21T08:03:54;7.00;99.90
30648;DHT22;17683;53.360;9.736;2023-11-21T08:06:25;7.00;99.90
30648;DHT22;17683;53.360;9.736;2023-11-21T08:08:51;7.10;99.90
30648;DHT22;17683;53.360;9.736;2023-11-21T08:11:17;7.10;99.90
30648;DHT22;17683;53.360;9.736;2023-11-21T08:13:43;7.10;99.90
30648;DHT22;17683;53.360;9.736;2023-11-21T08:16:08;7.20;99.90
30648;DHT22;17683;53.360;9.736;2023-11-21T08:18:34;7.20;99.90
30648;DHT22;17683;53.360;9.736;2023-11-21T08:21:01;7.20;99.90
30648;DHT22;17683;53.360;9.736;2023-11-21T08:23:26;7.20;99.90
30648;DHT22;17683;53.360;9.736;2023-11-21T08:25:53;7.30;99.90
30648;DHT22;17683;53.360;9.736;2023-11-21T08:28:19;7.20;99.90
30648;DHT22;17683;53.360;9.736;2023-11-21T08:30:45;7.20;99.90
30648;DHT22;17683;53.360;9.736;2023-11-21T08:33:10;7.20;99.90
30648;DHT22;17683;53.360;9.736;2023-11-21T08:35:39;7.30;99.90
30648;DHT22;17683;53.360;9.736;2023-11-21T08:38:04;7.30;99.90
30648;DHT22;17683;53.360;9.736;2023-11-21T08:40:30;7.30;99.90
30648;DHT22;17683;53.360;9.736;2023-11-21T08:42:57;7.30;99.90
30648;DHT22;17683;53.360;9.736;2023-11-21T08:45:25;7.40;99.90
30648;DHT22;17683;53.360;9.736;2023-11-21T08:47:51;7.40;99.90
30648;DHT22;17683;53.360;9.736;2023-11-21T08:50:17;7.40;99.90
30648;DHT22;17683;53.360;9.736;2023-11-21T08:52:44;7.40;99.90
30648;DHT22;17683;53.360;9.736;2023-11-21T08:55:11;7.40;99.90
30648;DHT22;17683;53.360;9.736;2023-11-21T08:57:40;7.40;99.90
30648;DHT22;17683;53.360;9.736;2023-11-21T09:00:10;7.30;99.90
30648;DHT22;17683;53.360;9.736;2023-11-21T09:02:39;7.40;99.90
30648;DHT22;17683;53.360;9.736;2023-11-21T09:05:08;7.50;99.90
30648;DHT22;17683;53.360;9.736;2023-11-21T09:07:35;7.50;99.90
30648;DHT22;17683;53.360;9.736;2023-11-21T09:10:02;7.50;99.90
30648;DHT22;17683;53.360;9.736;2023-11-21T09:12:28;7.60;99.90
30648;DHT22;17683;53.360;9.736;2023-11-21T09:14:54;7.60;99.90
30648;DHT22;17683;53.360;9.736;2023-11-21T09:17:19;7.70;99.90
30648;DHT22;17683;53.360;9.736;2023-11-21T09:19:45;7.70;99.90
30648;DHT22;17683;53.360;9.736;2023-11-21T09:22:16;7.70;99.90
30648;DHT22;17683;53.360;9.736;2023-11-21T09:24:41;7.70;99.90
30648;DHT22;17683;53.360;9.736;2023-11-21T09:27:08;7.80;99.90
30648;DHT22;17683;53.360;9.736;2023-11-21T09:29:38;7.80;99.90
30648;DHT22;17683;53.360;9.736;2023-11-21T09:32:05;7.70;99.90
30648;DHT22;17683;53.360;9.736;2023-11-21T09:34:35;7.80;99.90
30648;DHT22;17683;53.360;9.736;2023-11-21T09:37:04;7.80;99.90
30648;DHT22;17683;53.360;9.736;2023-11-21T09:39:33;7.90;99.90
30648;DHT22;17683;53.360;9.736;2023-11-21T09:42:14;7.90;99.90
30648;DHT22;17683;53.360;9.736;2023-11-21T09:47:15;7.90;99.90
30648;DHT22;17683;53.360;9.736;2023-11-21T09:49:47;7.90;99.90
30648;DHT22;17683;53.360;9.736;2023-11-21T09:52:22;8.00;99.90
30648;DHT22;17683;53.360;9.736;2023-11-21T09:54:51;8.00;99.90
30648;DHT22;17683;53.360;9.736;2023-11-21T09:57:23;7.90;99.90
30648;DHT22;17683;53.360;9.736;2023-11-21T09:59:51;7.90;99.90
30648;DHT22;17683;53.360;9.736;2023-11-21T10:02:23;7.90;99.90
30648;DHT22;17683;53.360;9.736;2023-11-21T10:04:52;7.90;99.90
30648;DHT22;17683;53.360;9.736;2023-11-21T10:07:19;7.90;99.90
30648;DHT22;17683;53.360;9.736;2023-11-21T10:09:47;7.90;99.90
30648;DHT22;17683;53.360;9.736;2023-11-21T10:12:15;8.00;99.90
30648;DHT22;17683;53.360;9.736;2023-11-21T10:14:41;8.00;99.90
30648;DHT22;17683;53.360;9.736;2023-11-21T10:17:08;8.00;99.90
30648;DHT22;17683;53.360;9.736;2023-11-21T10:19:39;8.00;99.90
30648;DHT22;17683;53.360;9.736;2023-11-21T10:22:05;8.00;99.90
30648;DHT22;17683;53.360;9.736;2023-11-21T10:24:32;7.90;99.90
30648;DHT22;17683;53.360;9.736;2023-11-21T10:26:58;7.90;99.90
30648;DHT22;17683;53.360;9.736;2023-11-21T10:29:25;7.90;99.90
30648;DHT22;17683;53.360;9.736;2023-11-21T10:31:52;7.90;99.90
30648;DHT22;17683;53.360;9.736;2023-11-21T10:34:20;7.90;99.90
30648;DHT22;17683;53.360;9.736;2023-11-21T10:36:47;7.90;99.90
30648;DHT22;17683;53.360;9.736;2023-11-21T10:39:18;8.00;99.90
30648;DHT22;17683;53.360;9.736;2023-11-21T10:41:48;7.90;99.90
30648;DHT22;17683;53.360;9.736;2023-11-21T10:44:14;7.90;99.90
30648;DHT22;17683;53.360;9.736;2023-11-21T10:46:47;7.90;99.90
30648;DHT22;17683;53.360;9.736;2023-11-21T10:49:17;7.90;99.90
30648;DHT22;17683;53.360;9.736;2023-11-21T10:51:44;8.00;99.90
30648;DHT22;17683;53.360;9.736;2023-11-21T10:54:09;7.90;99.90
30648;DHT22;17683;53.360;9.736;2023-11-21T10:56:36;8.00;99.90
30648;DHT22;17683;53.360;9.736;2023-11-21T10:59:09;8.00;99.90
30648;DHT22;17683;53.360;9.736;2023-11-21T11:01:37;8.00;99.90
30648;DHT22;17683;53.360;9.736;2023-11-21T11:04:05;7.90;99.90
30648;DHT22;17683;53.360;9.736;2023-11-21T11:06:32;8.00;99.90
30648;DHT22;17683;53.360;9.736;2023-11-21T11:08:59;8.00;99.90
30648;DHT22;17683;53.360;9.736;2023-11-21T11:11:29;8.00;99.90
30648;DHT22;17683;53.360;9.736;2023-11-21T11:13:56;7.90;99.90
30648;DHT22;17683;53.360;9.736;2023-11-21T11:16:22;8.00;99.90
30648;DHT22;17683;53.360;9.736;2023-11-21T11:18:50;8.00;99.90
30648;DHT22;17683;53.360;9.736;2023-11-21T11:24:17;8.00;99.90
30648;DHT22;17683;53.360;9.736;2023-11-21T11:26:59;8.10;99.90
30648;DHT22;17683;53.360;9.736;2023-11-21T11:29:44;8.00;99.90
30648;DHT22;17683;53.360;9.736;2023-11-21T11:32:27;8.10;99.90
30648;DHT22;17683;53.360;9.736;2023-11-21T11:35:12;8.10;99.90
30648;DHT22;17683;53.360;9.736;2023-11-21T11:37:42;8.10;99.90
30648;DHT22;17683;53.360;9.736;2023-11-21T11:40:11;8.10;99.90
30648;DHT22;17683;53.360;9.736;2023-11-21T11:42:37;8.10;99.90
30648;DHT22;17683;53.360;9.736;2023-11-21T11:45:17;8.10;99.90
30648;DHT22;17683;53.360;9.736;2023-11-21T11:47:44;8.10;99.90
30648;DHT22;17683;53.360;9.736;2023-11-21T11:50:13;8.00;99.90
30648;DHT22;17683;53.360;9.736;2023-11-21T11:52:47;8.00;99.90
30648;DHT22;17683;53.360;9.736;2023-11-21T11:55:15;8.10;99.90
30648;DHT22;17683;53.360;9.736;2023-11-21T11:57:45;8.10;99.90
30648;DHT22;17683;53.360;9.736;2023-11-21T12:00:19;8.00;99.90
30648;DHT22;17683;53.360;9.736;2023-11-21T12:02:48;8.00;99.90
30648;DHT22;17683;53.360;9.736;2023-11-21T12:05:16;8.00;99.90
30648;DHT22;17683;53.360;9.736;2023-11-21T12:07:52;8.00;99.90
30648;DHT22;17683;53.360;9.736;2023-11-21T12:10:21;8.00;99.90
30648;DHT22;17683;53.360;9.736;2023-11-21T12:12:55;8.00;99.90
30648;DHT22;17683;53.360;9.736;2023-11-21T12:15:21;7.90;99.90
30648;DHT22;17683;53.360;9.736;2023-11-21T12:17:48;7.90;99.90
30648;DHT22;17683;53.360;9.736;2023-11-21T12:20:21;8.00;99.90
30648;DHT22;17683;53.360;9.736;2023-11-21T12:22:51;8.00;99.90
30648;DHT22;17683;53.360;9.736;2023-11-21T12:25:24;8.00;99.90
30648;DHT22;17683;53.360;9.736;2023-11-21T12:27:54;8.10;99.90
30648;DHT22;17683;53.360;9.736;2023-11-21T12:30:22;8.10;99.90
30648;DHT22;17683;53.360;9.736;2023-11-21T12:32:50;8.10;99.90
30648;DHT22;17683;53.360;9.736;2023-11-21T12:35:21;8.00;99.90
30648;DHT22;17683;53.360;9.736;2023-11-21T12:37:47;8.00;99.90
30648;DHT22;17683;53.360;9.736;2023-11-21T12:40:16;8.00;99.90
30648;DHT22;17683;53.360;9.736;2023-11-21T12:42:46;8.00;99.90
30648;DHT22;17683;53.360;9.736;2023-11-21T12:47:46;8.00;99.90
30648;DHT22;17683;53.360;9.736;2023-11-21T12:50:12;8.00;99.90
30648;DHT22;17683;53.360;9.736;2023-11-21T12:52:51;8.00;99.90
30648;DHT22;17683;53.360;9.736;2023-11-21T12:55:23;7.90;99.90
30648;DHT22;17683;53.360;9.736;2023-11-21T12:57:53;8.00;99.90
30648;DHT22;17683;53.360;9.736;2023-11-21T13:00:32;7.90;99.90
30648;DHT22;17683;53.360;9.736;2023-11-21T13:02:59;7.90;99.90
30648;DHT22;17683;53.360;9.736;2023-11-21T13:05:33;7.90;99.90
30648;DHT22;17683;53.360;9.736;2023-11-21T13:08:02;7.90;99.90
30648;DHT22;17683;53.360;9.736;2023-11-21T13:10:30;7.80;99.90
30648;DHT22;17683;53.360;9.736;2023-11-21T13:13:00;7.80;99.90
30648;DHT22;17683;53.360;9.736;2023-11-21T13:15:27;7.80;99.90
30648;DHT22;17683;53.360;9.736;2023-11-21T13:17:53;7.80;99.90
30648;DHT22;17683;53.360;9.736;2023-11-21T13:20:20;7.80;99.90
30648;DHT22;17683;53.360;9.736;2023-11-21T13:22:49;7.80;99.90
30648;DHT22;17683;53.360;9.736;2023-11-21T13:25:16;7.80;99.90
30648;DHT22;17683;53.360;9.736;2023-11-21T13:27:45;7.80;99.90
30648;DHT22;17683;53.360;9.736;2023-11-21T13:30:13;7.80;99.90
30648;DHT22;17683;53.360;9.736;2023-11-21T13:32:41;7.80;99.90
30648;DHT22;17683;53.360;9.736;2023-11-21T13:35:07;7.80;99.90
30648;DHT22;17683;53.360;9.736;2023-11-21T13:37:40;7.80;99.90
30648;DHT22;17683;53.360;9.736;2023-11-21T13:40:06;7.70;99.90
30648;DHT22;17683;53.360;9.736;2023-11-21T13:42:40;7.70;99.90
30648;DHT22;17683;53.360;9.736;2023-11-21T13:45:07;7.70;99.90
30648;DHT22;17683;53.360;9.736;2023-11-21T13:47:32;7.60;99.90
30648;DHT22;17683;53.360;9.736;2023-11-21T13:49:59;7.50;99.90
30648;DHT22;17683;53.360;9.736;2023-11-21T13:52:49;7.50;99.90
30648;DHT22;17683;53.360;9.736;2023-11-21T13:55:45;7.50;99.90
30648;DHT22;17683;53.360;9.736;2023-11-21T13:58:11;7.50;99.90
30648;DHT22;17683;53.360;9.736;2023-11-21T14:00:43;7.50;99.90
30648;DHT22;17683;53.360;9.736;2023-11-21T14:03:13;7.50;99.90
30648;DHT22;17683;53.360;9.736;2023-11-21T14:05:46;7.50;99.90
30648;DHT22;17683;53.360;9.736;2023-11-21T14:08:13;7.30;99.90
30648;DHT22;17683;53.360;9.736;2023-11-21T14:10:42;7.30;99.90
30648;DHT22;17683;53.360;9.736;2023-11-21T14:13:09;7.40;99.90
30648;DHT22;17683;53.360;9.736;2023-11-21T14:15:39;7.30;99.90
30648;DHT22;17683;53.360;9.736;2023-11-21T14:18:10;7.20;99.90
30648;DHT22;17683;53.360;9.736;2023-11-21T14:20:42;7.30;99.90
30648;DHT22;17683;53.360;9.736;2023-11-21T14:23:07;7.20;99.90
30648;DHT22;17683;53.360;9.736;2023-11-21T14:25:37;7.30;99.90
30648;DHT22;17683;53.360;9.736;2023-11-21T14:28:05;7.30;99.90
30648;DHT22;17683;53.360;9.736;2023-11-21T14:30:32;7.20;99.90
30648;DHT22;17683;53.360;9.736;2023-11-21T14:33:01;7.20;99.90
30648;DHT22;17683;53.360;9.736;2023-11-21T14:35:27;7.20;99.90
30648;DHT22;17683;53.360;9.736;2023-11-21T14:37:53;7.20;99.90
30648;DHT22;17683;53.360;9.736;2023-11-21T14:40:20;7.20;99.90
30648;DHT22;17683;53.360;9.736;2023-11-21T14:42:53;7.20;99.90
30648;DHT22;17683;53.360;9.736;2023-11-21T14:45:19;7.20;99.90
30648;DHT22;17683;53.360;9.736;2023-11-21T14:47:49;7.20;99.90
30648;DHT22;17683;53.360;9.736;2023-11-21T14:50:25;7.20;99.90
30648;DHT22;17683;53.360;9.736;2023-11-21T14:53:29;7.10;99.90
30648;DHT22;17683;53.360;9.736;2023-11-21T14:56:13;7.10;99.90
30648;DHT22;17683;53.360;9.736;2023-11-21T14:58:47;7.10;99.90
30648;DHT22;17683;53.360;9.736;2023-11-21T15:01:13;7.10;99.90
30648;DHT22;17683;53.360;9.736;2023-11-21T15:03:39;7.10;99.90
30648;DHT22;17683;53.360;9.736;2023-11-21T15:06:15;7.10;99.90
30648;DHT22;17683;53.360;9.736;2023-11-21T15:08:58;6.90;99.90
30648;DHT22;17683;53.360;9.736;2023-11-21T15:11:32;6.90;99.90
30648;DHT22;17683;53.360;9.736;2023-11-21T15:13:58;6.90;99.90
30648;DHT22;17683;53.360;9.736;2023-11-21T15:16:25;6.90;99.90
30648;DHT22;17683;53.360;9.736;2023-11-21T15:18:53;6.90;99.90
30648;DHT22;17683;53.360;9.736;2023-11-21T15:21:20;6.90;99.90
30648;DHT22;17683;53.360;9.736;2023-11-21T15:23:47;6.90;99.90
30648;DHT22;17683;53.360;9.736;2023-11-21T15:26:13;6.90;99.90
30648;DHT22;17683;53.360;9.736;2023-11-21T15:28:39;6.90;99.90
30648;DHT22;17683;53.360;9.736;2023-11-21T15:31:05;6.80;99.90
30648;DHT22;17683;53.360;9.736;2023-11-21T15:33:33;6.90;99.90
30648;DHT22;17683;53.360;9.736;2023-11-21T15:36:01;6.80;99.90
30648;DHT22;17683;53.360;9.736;2023-11-21T15:38:28;6.80;99.90
30648;DHT22;17683;53.360;9.736;2023-11-21T15:40:54;6.80;99.90
30648;DHT22;17683;53.360;9.736;2023-11-21T15:43:20;6.90;99.90
30648;DHT22;17683;53.360;9.736;2023-11-21T15:45:45;6.90;99.90
30648;DHT22;17683;53.360;9.736;2023-11-21T15:48:11;6.70;99.90
30648;DHT22;17683;53.360;9.736;2023-11-21T15:50:37;6.70;99.90
30648;DHT22;17683;53.360;9.736;2023-11-21T15:53:02;6.70;99.90
30648;DHT22;17683;53.360;9.736;2023-11-21T15:55:31;6.70;99.90
30648;DHT22;17683;53.360;9.736;2023-11-21T15:57:57;6.70;99.90